createdAt,value
2022-08-18T00:01:36.814Z,19.30
2022-08-18T00:04:15.380Z,19.30
2022-08-18T00:06:53.043Z,19.30
2022-08-18T00:09:19.959Z,19.30
2022-08-18T00:11:48.777Z,19.30
2022-08-18T00:14:22.340Z,19.30
2022-08-18T00:16:52.631Z,19.20
2022-08-18T00:19:20.148Z,19.20
2022-08-18T00:22:07.530Z,19.20
2022-08-18T00:24:35.468Z,19.20
2022-08-18T00:27:05.712Z,19.10
2022-08-18T00:29:36.627Z,19.10
2022-08-18T00:32:18.370Z,19.10
2022-08-18T00:34:45.396Z,19.10
2022-08-18T00:37:12.359Z,19.10
2022-08-18T00:39:43.550Z,19.10
2022-08-18T00:42:28.879Z,19.10
2022-08-18T00:45:02.712Z,19.00
2022-08-18T00:47:41.004Z,19.00
2022-08-18T00:50:15.434Z,19.00
2022-08-18T00:52:46.634Z,18.90
2022-08-18T00:55:13.755Z,18.90
2022-08-18T00:57:42.865Z,18.90
2022-08-18T01:00:13.218Z,19.00
2022-08-18T01:02:47.681Z,18.90
2022-08-18T01:05:30.363Z,18.90
2022-08-18T01:07:57.327Z,18.90
2022-08-18T01:10:24.218Z,18.90
2022-08-18T01:12:54.813Z,18.80
2022-08-18T01:15:27.814Z,18.90
2022-08-18T01:18:17.475Z,18.80
2022-08-18T01:21:26.777Z,18.80
2022-08-18T01:23:55.949Z,18.80
2022-08-18T01:26:24.201Z,18.80
2022-08-18T01:28:52.395Z,18.70
2022-08-18T01:31:37.701Z,18.70
2022-08-18T01:34:07.133Z,18.70
2022-08-18T01:36:37.473Z,18.70
2022-08-18T01:39:09.751Z,18.70
2022-08-18T01:41:36.926Z,18.70
2022-08-18T01:44:05.184Z,18.70
2022-08-18T01:46:35.007Z,18.60
2022-08-18T01:49:03.630Z,18.60
2022-08-18T01:51:40.208Z,18.60
2022-08-18T01:54:10.486Z,18.60
2022-08-18T01:56:37.404Z,18.60
2022-08-18T01:59:05.723Z,18.50
2022-08-18T02:01:37.722Z,18.50
2022-08-18T02:07:04.726Z,18.40
2022-08-18T02:09:31.576Z,18.40
2022-08-18T02:11:58.397Z,18.50
2022-08-18T02:14:27.366Z,18.40
2022-08-18T02:17:01.837Z,18.40
2022-08-18T02:19:35.197Z,18.40
2022-08-18T02:22:03.162Z,18.30
2022-08-18T02:24:30.252Z,18.30
2022-08-18T02:26:57.245Z,18.30
2022-08-18T02:29:24.187Z,18.30
2022-08-18T02:31:51.216Z,18.30
2022-08-18T02:34:18.654Z,18.30
2022-08-18T02:36:45.915Z,18.30
2022-08-18T02:39:13.472Z,18.30
2022-08-18T02:41:40.562Z,18.30
2022-08-18T02:44:08.990Z,18.30
2022-08-18T02:46:37.273Z,18.20
2022-08-18T02:49:05.789Z,18.20
2022-08-18T02:51:32.594Z,18.20
2022-08-18T02:53:59.769Z,18.30
2022-08-18T02:56:40.741Z,18.30
2022-08-18T02:59:24.235Z,18.30
2022-08-18T03:01:53.379Z,18.30
2022-08-18T03:04:29.718Z,18.30
2022-08-18T03:07:01.627Z,18.30
2022-08-18T03:09:29.619Z,18.30
2022-08-18T03:11:57.289Z,18.30
2022-08-18T03:14:25.463Z,18.50
2022-08-18T03:16:53.456Z,18.40
2022-08-18T03:19:23.253Z,18.40
2022-08-18T03:21:50.499Z,18.40
2022-08-18T03:24:22.749Z,18.50
2022-08-18T03:26:52.024Z,18.50
2022-08-18T03:29:19.908Z,18.40
2022-08-18T03:31:48.817Z,18.50
2022-08-18T03:34:19.729Z,18.50
2022-08-18T03:36:49.009Z,18.50
2022-08-18T03:39:16.557Z,18.40
2022-08-18T03:41:59.519Z,18.50
2022-08-18T03:44:33.627Z,18.50
2022-08-18T03:47:03.727Z,18.50
2022-08-18T03:49:32.349Z,18.50
2022-08-18T03:52:00.995Z,18.50
2022-08-18T03:54:28.407Z,18.50
2022-08-18T03:56:55.882Z,18.50
2022-08-18T03:59:26.999Z,18.50
2022-08-18T04:01:55.293Z,18.50
2022-08-18T04:04:25.431Z,18.50
2022-08-18T04:06:58.538Z,18.40
2022-08-18T04:09:27.888Z,18.40
2022-08-18T04:11:55.735Z,18.50
2022-08-18T04:14:25.206Z,18.40
2022-08-18T04:16:53.092Z,18.40
2022-08-18T04:19:26.782Z,18.40
2022-08-18T04:21:58.078Z,18.30
2022-08-18T04:24:28.183Z,18.40
2022-08-18T04:27:01.989Z,18.40
2022-08-18T04:29:29.244Z,18.40
2022-08-18T04:31:56.218Z,18.40
2022-08-18T04:34:23.917Z,18.40
2022-08-18T04:36:54.055Z,18.50
2022-08-18T04:39:22.858Z,18.50
2022-08-18T04:41:50.074Z,18.40
2022-08-18T04:44:18.261Z,18.50
2022-08-18T04:46:51.991Z,18.50
2022-08-18T04:49:21.393Z,18.50
2022-08-18T04:52:26.795Z,18.50
2022-08-18T04:54:56.076Z,18.60
2022-08-18T04:57:24.018Z,18.50
2022-08-18T04:59:52.436Z,18.60
2022-08-18T05:02:21.944Z,18.60
2022-08-18T05:04:48.993Z,18.60
2022-08-18T05:07:19.633Z,18.60
2022-08-18T05:09:47.043Z,18.60
2022-08-18T05:12:15.599Z,18.70
2022-08-18T05:14:44.671Z,18.70
2022-08-18T05:17:15.112Z,18.70
2022-08-18T05:19:44.610Z,18.70
2022-08-18T05:22:17.777Z,18.80
2022-08-18T05:24:45.978Z,18.80
2022-08-18T05:27:13.727Z,18.80
2022-08-18T05:29:41.666Z,19.00
2022-08-18T05:32:40.923Z,18.90
2022-08-18T05:35:12.235Z,18.90
2022-08-18T05:38:02.034Z,19.00
2022-08-18T05:40:31.953Z,19.00
2022-08-18T05:43:01.200Z,19.00
2022-08-18T05:45:28.453Z,19.10
2022-08-18T05:48:02.426Z,19.10
2022-08-18T05:50:32.267Z,19.10
2022-08-18T05:53:13.251Z,18.80
2022-08-18T05:56:10.551Z,19.20
2022-08-18T05:58:44.492Z,19.20
2022-08-18T06:01:19.405Z,19.20
2022-08-18T06:03:49.018Z,19.10
2022-08-18T06:06:21.317Z,19.30
2022-08-18T06:09:23.847Z,19.70
2022-08-18T06:11:51.161Z,20.00
2022-08-18T06:14:18.987Z,20.20
2022-08-18T06:17:15.303Z,20.40
2022-08-18T06:20:01.689Z,20.60
2022-08-18T06:22:52.399Z,20.80
2022-08-18T06:25:48.303Z,20.90
2022-08-18T06:28:16.994Z,21.10
2022-08-18T06:30:47.277Z,21.30
2022-08-18T06:39:02.716Z,21.70
2022-08-18T06:44:33.589Z,21.80
2022-08-18T06:47:20.878Z,21.90
2022-08-18T06:50:06.450Z,22.10
2022-08-18T06:52:39.676Z,22.10
2022-08-18T06:57:38.333Z,22.40
2022-08-18T07:00:16.992Z,22.40
2022-08-18T07:02:58.284Z,22.60
2022-08-18T07:05:31.247Z,22.80
2022-08-18T07:08:11.154Z,23.00
2022-08-18T07:10:45.081Z,22.90
2022-08-18T07:13:23.007Z,22.90
2022-08-18T07:15:50.551Z,22.90
2022-08-18T07:18:24.589Z,23.00
2022-08-18T07:21:00.859Z,23.00
2022-08-18T07:23:33.802Z,23.00
2022-08-18T07:26:15.563Z,23.10
2022-08-18T07:28:45.433Z,23.20
2022-08-18T07:31:35.091Z,23.40
2022-08-18T07:34:20.828Z,23.50
2022-08-18T07:36:55.039Z,23.60
2022-08-18T07:39:36.625Z,23.60
2022-08-18T07:42:11.283Z,23.60
2022-08-18T07:44:46.978Z,23.80
2022-08-18T07:47:20.080Z,23.90
2022-08-18T07:50:16.622Z,23.90
2022-08-18T07:52:54.134Z,24.10
2022-08-18T07:55:28.225Z,24.20
2022-08-18T07:58:15.567Z,24.50
2022-08-18T08:01:00.127Z,24.60
2022-08-18T08:04:02.419Z,24.70
2022-08-18T08:06:38.893Z,24.80
2022-08-18T08:09:37.387Z,24.90
2022-08-18T08:12:24.471Z,24.80
2022-08-18T08:14:59.198Z,25.00
2022-08-18T08:17:42.949Z,24.60
2022-08-18T08:20:09.851Z,24.40
2022-08-18T08:22:49.491Z,24.10
2022-08-18T08:25:45.255Z,23.90
2022-08-18T08:28:50.348Z,24.10
2022-08-18T08:31:39.839Z,24.50
2022-08-18T08:34:15.435Z,24.90
2022-08-18T08:36:45.466Z,25.20
2022-08-18T08:39:14.509Z,25.20
2022-08-18T08:41:47.708Z,25.30
2022-08-18T08:44:18.325Z,25.30
2022-08-18T08:47:00.126Z,25.40
2022-08-18T08:49:41.743Z,25.70
2022-08-18T08:52:23.893Z,25.90
2022-08-18T08:54:56.150Z,25.50
2022-08-18T08:59:56.787Z,25.10
2022-08-18T09:03:13.071Z,24.80
2022-08-18T09:06:04.604Z,24.60
2022-08-18T09:08:39.241Z,24.70
2022-08-18T09:11:09.195Z,25.40
2022-08-18T09:13:57.310Z,25.40
2022-08-18T09:16:27.866Z,25.40
2022-08-18T09:19:13.792Z,25.80
2022-08-18T09:21:53.544Z,26.00
2022-08-18T09:24:38.832Z,25.70
2022-08-18T09:27:22.900Z,25.40
2022-08-18T09:29:57.201Z,25.20
2022-08-18T09:32:25.941Z,25.20
2022-08-18T09:35:29.792Z,25.50
2022-08-18T09:38:20.607Z,25.90
2022-08-18T09:41:25.682Z,26.10
2022-08-18T09:44:11.924Z,26.40
2022-08-18T09:46:47.896Z,26.60
2022-08-18T09:49:27.859Z,27.00
2022-08-18T09:52:24.485Z,27.20
2022-08-18T09:54:58.429Z,27.40
2022-08-18T10:00:33.571Z,26.70
2022-08-18T10:03:02.279Z,26.40
2022-08-18T10:05:31.503Z,26.40
2022-08-18T10:08:14.807Z,26.30
2022-08-18T10:11:09.327Z,26.10
2022-08-18T10:13:49.411Z,25.90
2022-08-18T10:17:04.906Z,25.60
2022-08-18T10:19:39.502Z,25.50
2022-08-18T10:22:09.667Z,25.40
2022-08-18T10:24:56.377Z,25.40
2022-08-18T10:27:49.260Z,25.40
2022-08-18T10:34:05.494Z,27.30
2022-08-18T10:36:53.237Z,26.70
2022-08-18T10:39:27.389Z,26.40
2022-08-18T10:42:05.122Z,26.30
2022-08-18T10:44:37.373Z,26.00
2022-08-18T10:47:12.134Z,25.90
2022-08-18T10:49:46.553Z,25.90
2022-08-18T10:52:33.881Z,25.90
2022-08-18T10:55:17.199Z,25.80
2022-08-18T10:58:08.338Z,25.90
2022-08-18T11:00:51.565Z,26.50
2022-08-18T11:03:51.324Z,27.20
2022-08-18T11:06:23.687Z,26.90
2022-08-18T11:09:01.733Z,27.10
2022-08-18T11:11:41.511Z,27.20
2022-08-18T11:14:27.989Z,27.40
2022-08-18T11:17:04.017Z,27.60
2022-08-18T11:19:42.804Z,27.80
2022-08-18T11:22:32.411Z,27.30
2022-08-18T11:25:01.449Z,27.00
2022-08-18T11:27:37.468Z,26.70
2022-08-18T11:30:09.778Z,26.40
2022-08-18T11:32:55.261Z,26.20
2022-08-18T11:35:34.228Z,26.00
2022-08-18T11:38:12.407Z,25.80
2022-08-18T11:43:41.260Z,25.60
2022-08-18T11:46:29.552Z,25.70
2022-08-18T11:54:23.279Z,25.80
2022-08-18T12:02:18.860Z,25.90
2022-08-18T12:04:52.862Z,26.30
2022-08-18T12:07:36.596Z,26.80
2022-08-18T12:10:28.821Z,26.90
2022-08-18T12:13:00.424Z,26.90
2022-08-18T12:15:43.754Z,26.70
2022-08-18T12:18:18.782Z,27.00
2022-08-18T12:20:58.100Z,27.00
2022-08-18T12:23:25.752Z,27.00
2022-08-18T12:25:52.706Z,27.10
2022-08-18T12:28:22.867Z,27.20
2022-08-18T12:30:56.404Z,27.20
2022-08-18T12:33:34.389Z,27.10
2022-08-18T12:36:15.769Z,27.00
2022-08-18T12:38:44.948Z,27.10
2022-08-18T12:41:23.516Z,27.20
2022-08-18T12:46:37.839Z,27.10
2022-08-18T12:49:16.342Z,27.00
2022-08-18T12:51:44.361Z,26.90
2022-08-18T12:54:12.561Z,26.80
2022-08-18T12:56:41.562Z,26.70
2022-08-18T12:59:09.395Z,26.70
2022-08-18T13:01:39.940Z,26.50
2022-08-18T13:04:12.433Z,26.50
2022-08-18T13:09:35.720Z,26.30
2022-08-18T13:12:19.230Z,26.30
2022-08-18T13:14:46.992Z,26.10
2022-08-18T13:17:29.785Z,26.20
2022-08-18T13:20:05.113Z,26.10
2022-08-18T13:22:33.218Z,26.10
2022-08-18T13:25:05.225Z,26.10
2022-08-18T13:27:36.067Z,25.80
2022-08-18T13:30:29.278Z,25.70
2022-08-18T13:33:02.641Z,25.70
2022-08-18T13:35:37.863Z,25.60
2022-08-18T13:38:14.308Z,25.60
2022-08-18T13:40:50.820Z,25.40
2022-08-18T13:43:21.755Z,25.50
2022-08-18T13:45:53.496Z,25.40
2022-08-18T13:48:24.298Z,25.40
2022-08-18T13:50:56.029Z,25.40
2022-08-18T13:53:24.684Z,25.30
2022-08-18T13:55:53.709Z,25.30
2022-08-18T13:58:21.264Z,25.30
2022-08-18T14:00:54.512Z,25.30
2022-08-18T14:03:42.790Z,25.40
2022-08-18T14:06:11.573Z,25.30
2022-08-18T14:08:40.920Z,25.30
2022-08-18T14:11:09.022Z,25.30
2022-08-18T14:13:38.258Z,25.40
2022-08-18T14:16:18.691Z,25.30
2022-08-18T14:19:09.777Z,25.20
2022-08-18T14:22:02.515Z,25.10
2022-08-18T14:24:49.529Z,25.10
2022-08-18T14:27:18.697Z,25.10
2022-08-18T14:29:48.554Z,25.10
2022-08-18T14:32:28.402Z,25.10
2022-08-18T14:35:34.643Z,25.00
2022-08-18T14:37:51.485Z,25.10
2022-08-18T14:40:20.077Z,25.20
2022-08-18T14:42:55.053Z,25.30
2022-08-18T14:45:28.103Z,25.20
2022-08-18T14:48:07.715Z,25.30
2022-08-18T14:50:40.081Z,25.30
2022-08-18T14:53:17.446Z,25.30
2022-08-18T14:55:47.442Z,25.20
2022-08-18T14:58:16.551Z,25.30
2022-08-18T15:00:49.779Z,25.20
2022-08-18T15:03:30.916Z,25.30
2022-08-18T15:06:00.642Z,25.30
2022-08-18T15:08:35.238Z,25.20
2022-08-18T15:11:03.571Z,25.10
2022-08-18T15:13:30.842Z,25.10
2022-08-18T15:16:01.882Z,25.00
2022-08-18T15:18:29.626Z,24.90
2022-08-18T15:21:34.691Z,25.00
2022-08-18T15:24:24.015Z,24.90
2022-08-18T15:26:57.702Z,24.90
2022-08-18T15:29:27.946Z,24.90
2022-08-18T15:32:05.232Z,24.90
2022-08-18T15:34:47.166Z,24.90
2022-08-18T15:37:22.245Z,24.80
2022-08-18T15:40:01.293Z,24.80
2022-08-18T15:42:29.801Z,24.70
2022-08-18T15:45:00.570Z,24.70
2022-08-18T15:47:40.702Z,24.60
2022-08-18T15:50:25.835Z,24.60
2022-08-18T15:53:03.941Z,24.50
2022-08-18T15:55:37.807Z,24.50
2022-08-18T15:58:10.936Z,24.50
2022-08-18T16:00:42.484Z,24.40
2022-08-18T16:03:14.985Z,24.30
2022-08-18T16:05:53.988Z,24.30
2022-08-18T16:08:25.349Z,24.30
2022-08-18T16:10:54.049Z,24.20
2022-08-18T16:13:21.916Z,24.10
2022-08-18T16:15:49.992Z,24.20
2022-08-18T16:18:20.792Z,24.10
2022-08-18T16:20:47.756Z,24.10
2022-08-18T16:23:17.589Z,24.00
2022-08-18T16:25:45.047Z,24.00
2022-08-18T16:28:13.303Z,24.00
2022-08-18T16:30:40.903Z,24.00
2022-08-18T16:33:08.456Z,23.90
2022-08-18T16:35:37.422Z,23.90
2022-08-18T16:38:08.755Z,23.90
2022-08-18T16:40:36.783Z,23.80
2022-08-18T16:43:04.945Z,23.80
2022-08-18T16:45:33.620Z,23.80
2022-08-18T16:48:01.009Z,23.80
2022-08-18T16:50:28.918Z,23.70
2022-08-18T16:52:57.133Z,23.70
2022-08-18T16:55:24.034Z,23.70
2022-08-18T16:58:13.589Z,23.60
2022-08-18T17:01:01.295Z,23.60
2022-08-18T17:03:46.581Z,23.60
2022-08-18T17:06:17.266Z,23.50
2022-08-18T17:08:44.339Z,23.50
2022-08-18T17:11:16.176Z,23.50
2022-08-18T17:13:43.640Z,23.50
2022-08-18T17:16:11.718Z,23.40
2022-08-18T17:18:39.348Z,23.40
2022-08-18T17:21:08.095Z,23.40
2022-08-18T17:23:39.053Z,23.30
2022-08-18T17:26:17.629Z,23.30
2022-08-18T17:28:53.739Z,23.30
2022-08-18T17:31:24.657Z,23.30
2022-08-18T17:33:57.237Z,23.20
2022-08-18T17:36:33.993Z,23.20
2022-08-18T17:39:04.152Z,23.10
2022-08-18T17:41:31.030Z,23.20
2022-08-18T17:44:00.879Z,23.10
2022-08-18T17:46:37.847Z,23.10
2022-08-18T17:49:48.684Z,23.10
2022-08-18T17:55:16.319Z,23.10
2022-08-18T17:58:21.355Z,23.20
2022-08-18T18:03:15.572Z,23.10
2022-08-18T18:05:49.375Z,23.00
2022-08-18T18:08:17.124Z,23.10
2022-08-18T18:11:04.335Z,23.00
2022-08-18T18:13:33.014Z,23.00
2022-08-18T18:16:19.659Z,23.00
2022-08-18T18:19:01.763Z,22.90
2022-08-18T18:21:57.540Z,22.90
2022-08-18T18:24:24.192Z,22.80
2022-08-18T18:26:52.301Z,22.80
2022-08-18T18:31:58.512Z,22.70
2022-08-18T18:34:30.448Z,22.70
2022-08-18T18:36:59.281Z,22.60
2022-08-18T18:39:37.938Z,22.60
2022-08-18T18:42:18.111Z,22.60
2022-08-18T18:44:57.131Z,22.50
2022-08-18T18:50:03.181Z,22.50
2022-08-18T18:52:46.396Z,22.40
2022-08-18T18:55:27.161Z,22.40
2022-08-18T18:58:16.232Z,22.40
2022-08-18T19:00:53.819Z,22.30
2022-08-18T19:04:02.140Z,22.20
2022-08-18T19:06:57.551Z,22.20
2022-08-18T19:09:50.510Z,22.10
2022-08-18T19:12:41.577Z,22.10
2022-08-18T19:15:14.813Z,22.00
2022-08-18T19:18:05.299Z,22.00
2022-08-18T19:20:41.702Z,22.00
2022-08-18T19:23:44.379Z,21.90
2022-08-18T19:26:17.361Z,21.90
2022-08-18T19:29:12.157Z,21.80
2022-08-18T19:31:40.112Z,21.80
2022-08-18T19:34:16.599Z,21.70
2022-08-18T19:37:00.802Z,21.70
2022-08-18T19:40:03.379Z,21.60
2022-08-18T19:42:51.682Z,21.60
2022-08-18T19:45:36.687Z,21.50
2022-08-18T19:48:26.506Z,21.50
2022-08-18T19:51:00.699Z,21.40
2022-08-18T19:53:36.398Z,21.40
2022-08-18T19:56:35.386Z,21.40
2022-08-18T19:59:17.972Z,21.30
2022-08-18T20:02:05.090Z,21.30
2022-08-18T20:04:38.481Z,21.20
2022-08-18T20:07:49.885Z,21.20
2022-08-18T20:10:27.781Z,21.20
2022-08-18T20:13:00.491Z,21.10
2022-08-18T20:15:28.663Z,21.10
2022-08-18T20:17:58.685Z,21.00
2022-08-18T20:20:31.616Z,21.00
2022-08-18T20:22:59.476Z,21.00
2022-08-18T20:25:43.696Z,20.90
2022-08-18T20:28:13.790Z,20.90
2022-08-18T20:31:06.104Z,20.80
2022-08-18T20:33:38.052Z,20.70
2022-08-18T20:36:28.568Z,20.70
2022-08-18T20:38:58.447Z,20.70
2022-08-18T20:41:47.211Z,20.70
2022-08-18T20:44:29.333Z,20.70
2022-08-18T20:47:18.019Z,20.60
2022-08-18T20:50:12.909Z,20.60
2022-08-18T20:52:49.362Z,20.60
2022-08-18T20:55:55.360Z,20.50
2022-08-18T20:58:27.106Z,20.50
2022-08-18T21:00:57.693Z,20.50
2022-08-18T21:03:36.377Z,20.50
2022-08-18T21:06:04.286Z,20.40
2022-08-18T21:08:34.702Z,20.40
2022-08-18T21:11:04.848Z,20.30
2022-08-18T21:13:39.574Z,20.30
2022-08-18T21:16:38.025Z,20.30
2022-08-18T21:19:13.836Z,20.30
2022-08-18T21:21:47.095Z,20.20
2022-08-18T21:24:50.725Z,20.20
2022-08-18T21:27:30.057Z,20.20
2022-08-18T21:30:15.482Z,20.10
2022-08-18T21:32:44.580Z,20.10
2022-08-18T21:35:34.422Z,20.00
2022-08-18T21:38:05.583Z,20.00
2022-08-18T21:40:48.647Z,19.90
2022-08-18T21:43:49.090Z,19.90
2022-08-18T21:46:28.879Z,19.90
2022-08-18T21:48:59.187Z,19.90
2022-08-18T21:51:31.067Z,19.80
2022-08-18T21:53:59.431Z,19.80
2022-08-18T21:56:30.867Z,19.80
2022-08-18T21:59:24.162Z,19.70
2022-08-18T22:01:54.419Z,19.70
2022-08-18T22:04:27.485Z,19.70
2022-08-18T22:07:02.046Z,19.70
2022-08-18T22:09:50.910Z,19.70
2022-08-18T22:12:53.631Z,19.60
2022-08-18T22:15:25.494Z,19.60
2022-08-18T22:17:57.802Z,19.60
2022-08-18T22:20:39.682Z,19.50
2022-08-18T22:23:32.183Z,19.50
2022-08-18T22:26:14.211Z,19.50
2022-08-18T22:28:54.497Z,19.50
2022-08-18T22:31:23.210Z,19.50
2022-08-18T22:33:51.725Z,19.40
2022-08-18T22:36:23.296Z,19.40
2022-08-18T22:38:52.419Z,19.30
2022-08-18T22:41:20.620Z,19.40
2022-08-18T22:43:49.725Z,19.40
2022-08-18T22:46:24.255Z,19.40
2022-08-18T22:48:52.671Z,19.40
2022-08-18T22:51:23.990Z,19.40
2022-08-18T22:53:51.276Z,19.30
2022-08-18T22:56:33.819Z,19.30
2022-08-18T22:59:07.118Z,19.30
2022-08-18T23:01:46.646Z,19.30
2022-08-18T23:04:15.922Z,19.20
2022-08-18T23:06:48.505Z,19.30
2022-08-18T23:09:15.516Z,19.20
2022-08-18T23:11:44.356Z,19.20
2022-08-18T23:14:12.364Z,19.20
2022-08-18T23:16:39.199Z,19.10
2022-08-18T23:19:06.104Z,19.10
2022-08-18T23:21:34.311Z,19.10
2022-08-18T23:24:07.739Z,19.10
2022-08-18T23:26:36.159Z,19.00
2022-08-18T23:29:05.055Z,19.00
2022-08-18T23:31:32.423Z,19.00
2022-08-18T23:34:00.692Z,19.00
2022-08-18T23:36:29.558Z,18.90
2022-08-18T23:38:56.969Z,18.90
2022-08-18T23:41:24.609Z,18.90
2022-08-18T23:43:51.548Z,18.90
2022-08-18T23:46:25.794Z,18.80
2022-08-18T23:48:53.385Z,18.80
2022-08-18T23:51:32.691Z,18.80
2022-08-18T23:54:01.037Z,18.80
2022-08-18T23:56:29.843Z,18.80
2022-08-18T23:58:57.704Z,18.80
